Time;durP1;ratioP1;P1;durP2;ratioP2;P2;SDS_P1;SDS_P2;PMS_P1;PMS_P2;Temp;Humidity;BMP_temperature;BMP_pressure;BME280_temperature;BME280_humidity;BME280_pressure;Samples;Min_cycle;Max_cycle;Signal;HPM_P1;HPM_P2
2023/02/05 00:01:24;;;;;;;32.33;26.90;;;6.80;99.90;;;;;;5059249;28;20455;-73
2023/02/05 00:03:51;;;;;;;33.83;28.27;;;6.80;99.90;;;;;;5060392;28;20466;-72
2023/02/05 00:06:17;;;;;;;30.27;27.07;;;6.80;99.90;;;;;;5060393;28;20498;-73
2023/02/05 00:08:46;;;;;;;31.67;26.40;;;6.70;99.90;;;;;;5059993;28;20463;-74
2023/02/05 00:11:13;;;;;;;40.40;30.63;;;6.80;99.90;;;;;;5058891;28;20490;-72
2023/02/05 00:13:41;;;;;;;38.53;31.60;;;6.80;99.90;;;;;;5059826;28;20463;-70
2023/02/05 00:16:09;;;;;;;34.07;29.43;;;6.80;99.90;;;;;;5058325;28;20861;-71
2023/02/05 00:18:36;;;;;;;35.53;29.73;;;6.90;99.90;;;;;;5058934;28;20989;-72
2023/02/05 00:21:03;;;;;;;37.53;30.53;;;6.90;99.90;;;;;;5062979;28;20935;-72
2023/02/05 00:23:29;;;;;;;40.60;31.23;;;6.80;99.90;;;;;;5060292;28;20615;-73
2023/02/05 00:25:57;;;;;;;39.37;32.23;;;6.90;99.90;;;;;;5049620;28;20498;-73
2023/02/05 00:28:24;;;;;;;42.73;32.73;;;6.90;99.90;;;;;;5054090;28;20467;-72
2023/02/05 00:30:51;;;;;;;46.37;33.67;;;6.80;99.90;;;;;;5063250;28;20486;-73
2023/02/05 00:33:18;;;;;;;43.67;33.10;;;6.80;99.90;;;;;;5058006;28;20466;-72
2023/02/05 00:35:45;;;;;;;45.73;33.27;;;6.80;99.90;;;;;;5065500;28;20459;-71
2023/02/05 00:38:13;;;;;;;56.23;32.77;;;6.80;99.90;;;;;;5057767;28;20807;-73
2023/02/05 00:40:40;;;;;;;38.37;32.13;;;6.90;99.90;;;;;;5054415;28;20953;-71
2023/02/05 00:43:09;;;;;;;34.30;30.33;;;6.90;99.90;;;;;;5057040;28;20463;-73
2023/02/05 00:45:36;;;;;;;38.13;30.13;;;7.00;99.90;;;;;;5062173;28;20492;-73
2023/02/05 00:48:03;;;;;;;39.00;30.73;;;6.90;99.90;;;;;;5062133;28;20491;-73
2023/02/05 00:50:30;;;;;;;51.00;28.50;;;7.00;99.90;;;;;;5055676;28;20459;-74
2023/02/05 00:52:57;;;;;;;47.20;29.87;;;7.00;99.90;;;;;;5056634;28;20508;-71
2023/02/05 00:55:24;;;;;;;40.00;31.60;;;6.80;99.90;;;;;;5053954;28;20946;-74
2023/02/05 00:57:51;;;;;;;46.47;30.03;;;6.80;99.90;;;;;;5056799;28;20464;-72
2023/02/05 01:00:19;;;;;;;42.83;29.53;;;6.80;99.90;;;;;;5060325;28;20475;-72
2023/02/05 01:02:46;;;;;;;49.20;30.80;;;6.70;99.90;;;;;;5055120;28;20463;-72
2023/02/05 01:05:13;;;;;;;43.20;30.43;;;6.70;99.90;;;;;;5052556;28;20547;-70
2023/02/05 01:07:40;;;;;;;51.10;29.73;;;6.70;99.90;;;;;;5059419;28;20469;-71
2023/02/05 01:10:09;;;;;;;54.13;33.27;;;6.70;99.90;;;;;;5052668;28;20461;-73
2023/02/05 01:12:35;;;;;;;47.83;31.17;;;6.60;99.90;;;;;;5056491;28;20521;-73
2023/02/05 01:15:04;;;;;;;45.07;30.10;;;6.60;99.90;;;;;;5049061;28;20460;-73
2023/02/05 01:17:33;;;;;;;43.40;30.63;;;6.60;99.90;;;;;;5049551;28;20462;-70
2023/02/05 01:20:00;;;;;;;50.93;32.00;;;6.70;99.90;;;;;;5063575;28;20450;-70
2023/02/05 01:22:27;;;;;;;39.50;30.17;;;6.80;99.90;;;;;;5055200;28;20476;-71
2023/02/05 01:24:55;;;;;;;40.07;31.50;;;6.80;99.90;;;;;;5054737;28;20497;-72
2023/02/05 01:27:23;;;;;;;61.20;31.43;;;6.80;99.90;;;;;;5049248;28;20579;-73
2023/02/05 01:29:50;;;;;;;51.67;30.07;;;6.70;99.90;;;;;;5054382;28;21243;-71
2023/02/05 01:32:17;;;;;;;49.97;29.77;;;6.60;99.90;;;;;;5061976;28;20584;-72
2023/02/05 01:34:45;;;;;;;46.27;29.40;;;6.50;99.90;;;;;;5051798;28;20466;-71
2023/02/05 01:37:13;;;;;;;49.70;30.57;;;6.50;99.90;;;;;;5052553;28;20490;-73
2023/02/05 01:39:39;;;;;;;38.33;30.30;;;6.50;99.90;;;;;;5048919;28;20474;-73
2023/02/05 01:42:17;;;;;;;39.63;29.60;;;6.60;99.90;;;;;;5058327;28;20491;-71
2023/02/05 01:44:43;;;;;;;48.47;32.10;;;6.60;99.90;;;;;;5055132;28;20550;-70
2023/02/05 01:47:10;;;;;;;47.80;33.10;;;6.60;99.90;;;;;;5056038;28;20483;-73
2023/02/05 01:49:41;;;;;;;51.07;31.90;;;6.70;99.90;;;;;;5050859;28;20474;-73
2023/02/05 01:52:13;;;;;;;61.30;35.53;;;6.70;99.90;;;;;;5055075;28;20513;-70
2023/02/05 01:54:44;;;;;;;40.97;32.90;;;6.70;99.90;;;;;;5057361;28;20481;-70
2023/02/05 01:57:18;;;;;;;52.30;31.77;;;6.80;99.90;;;;;;5054394;28;20557;-72
2023/02/05 01:59:46;;;;;;;52.13;35.20;;;6.80;99.90;;;;;;5056102;28;20482;-70
2023/02/05 02:02:14;;;;;;;60.83;33.40;;;6.90;99.90;;;;;;5051567;28;20903;-71
2023/02/05 02:04:43;;;;;;;61.90;33.00;;;6.90;99.90;;;;;;5054830;28;20941;-72
2023/02/05 02:07:16;;;;;;;87.73;36.17;;;7.00;99.90;;;;;;5053102;28;20491;-71
2023/02/05 02:09:45;;;;;;;76.10;35.60;;;7.00;99.90;;;;;;5053934;28;20525;-72
2023/02/05 02:12:15;;;;;;;131.97;36.67;;;7.00;99.90;;;;;;5055105;28;20810;-73
2023/02/05 02:14:45;;;;;;;138.83;38.40;;;7.00;99.90;;;;;;5055165;28;20471;-70
2023/02/05 02:17:15;;;;;;;137.63;39.93;;;6.80;99.90;;;;;;5049434;28;20454;-74
2023/02/05 02:19:49;;;;;;;200.03;42.03;;;6.90;99.90;;;;;;5056500;28;20466;-73
2023/02/05 02:22:43;;;;;;;130.53;37.30;;;7.00;99.90;;;;;;5055727;28;20462;-72
2023/02/05 02:25:47;;;;;;;165.07;41.43;;;7.00;99.90;;;;;;5049483;28;20489;-72
2023/02/05 02:28:20;;;;;;;181.47;40.53;;;7.00;99.90;;;;;;5054983;28;20458;-71
2023/02/05 02:30:56;;;;;;;163.73;39.87;;;7.10;99.90;;;;;;5056322;28;20467;-71
2023/02/05 02:33:35;;;;;;;191.37;41.30;;;7.10;99.90;;;;;;5051243;28;20474;-72
2023/02/05 02:36:07;;;;;;;145.40;40.77;;;7.10;99.90;;;;;;5057887;28;20467;-73
2023/02/05 02:38:39;;;;;;;116.83;39.33;;;7.20;99.90;;;;;;5056450;28;20473;-71
2023/02/05 02:41:12;;;;;;;75.33;37.90;;;7.30;99.90;;;;;;5061265;28;20514;-73
2023/02/05 02:43:48;;;;;;;74.33;40.03;;;7.30;99.90;;;;;;5057034;28;21689;-72
2023/02/05 02:46:20;;;;;;;76.20;39.97;;;7.20;99.90;;;;;;5060260;28;20589;-74
2023/02/05 02:48:50;;;;;;;64.60;40.50;;;7.10;99.90;;;;;;5048297;28;20537;-71
2023/02/05 02:51:19;;;;;;;57.13;39.50;;;7.10;99.90;;;;;;5051959;28;21032;-73
2023/02/05 02:53:49;;;;;;;56.30;38.27;;;7.20;99.90;;;;;;5057746;28;22192;-70
2023/02/05 02:56:19;;;;;;;57.17;38.07;;;7.20;99.90;;;;;;5056211;28;20475;-73
2023/02/05 02:58:50;;;;;;;59.50;38.70;;;7.30;99.90;;;;;;5059620;28;20560;-72
2023/02/05 03:01:19;;;;;;;59.97;39.00;;;7.30;99.90;;;;;;5052442;28;20460;-73
2023/02/05 03:03:52;;;;;;;66.00;36.40;;;7.30;99.90;;;;;;5050583;28;20598;-73
2023/02/05 03:06:21;;;;;;;65.53;38.40;;;7.30;99.90;;;;;;5047987;28;20483;-71
2023/02/05 03:08:53;;;;;;;60.90;37.23;;;7.40;99.90;;;;;;5057362;28;20477;-73
2023/02/05 03:11:20;;;;;;;71.17;41.00;;;7.50;99.90;;;;;;5055249;28;20476;-73
2023/02/05 03:13:49;;;;;;;58.60;36.57;;;7.50;99.90;;;;;;5056470;28;20466;-74
2023/02/05 03:16:19;;;;;;;60.13;37.30;;;7.50;99.90;;;;;;5065620;28;20477;-71
2023/02/05 03:18:46;;;;;;;62.93;35.73;;;7.50;99.90;;;;;;5050580;28;20459;-72
2023/02/05 03:21:17;;;;;;;74.13;37.73;;;7.60;99.90;;;;;;5053244;28;20474;-74
2023/02/05 03:23:44;;;;;;;57.00;36.30;;;7.50;99.90;;;;;;5052894;28;20463;-73
2023/02/05 03:26:26;;;;;;;74.20;38.00;;;7.60;99.90;;;;;;5057056;28;20475;-74
2023/02/05 03:28:58;;;;;;;61.20;39.23;;;7.60;99.90;;;;;;5053284;28;20469;-71
2023/02/05 03:31:32;;;;;;;59.10;37.60;;;7.70;99.90;;;;;;5067252;28;21036;-71
2023/02/05 03:34:11;;;;;;;65.03;39.50;;;7.60;99.90;;;;;;5054248;28;20470;-73
2023/02/05 03:36:53;;;;;;;63.13;38.70;;;7.60;99.90;;;;;;5058823;28;20558;-74
2023/02/05 03:39:29;;;;;;;62.40;38.13;;;7.60;99.90;;;;;;5059785;28;20466;-72
2023/02/05 03:42:09;;;;;;;60.17;38.00;;;7.70;99.90;;;;;;5060899;28;21561;-71
2023/02/05 03:44:59;;;;;;;65.20;40.97;;;7.60;99.90;;;;;;5052098;28;20463;-71
2023/02/05 03:47:37;;;;;;;69.67;40.60;;;7.60;99.90;;;;;;5057546;28;20934;-71
2023/02/05 03:50:17;;;;;;;67.37;40.33;;;7.60;99.90;;;;;;5055171;28;20950;-73
2023/02/05 03:52:50;;;;;;;73.10;40.53;;;7.70;99.90;;;;;;5060254;28;20466;-70
2023/02/05 03:55:22;;;;;;;70.10;41.70;;;7.60;99.90;;;;;;5060490;28;20800;-74
2023/02/05 03:57:56;;;;;;;73.43;39.70;;;7.70;99.90;;;;;;5057937;28;20473;-73
2023/02/05 04:00:25;;;;;;;79.93;41.90;;;7.60;99.90;;;;;;5050465;28;20448;-71
2023/02/05 04:02:52;;;;;;;76.90;39.70;;;7.60;99.90;;;;;;5049846;28;20464;-71
2023/02/05 04:05:21;;;;;;;84.23;40.30;;;7.50;99.90;;;;;;5060229;28;20474;-71
2023/02/05 04:07:48;;;;;;;85.70;42.33;;;7.50;99.90;;;;;;5060841;28;20873;-74
2023/02/05 04:10:15;;;;;;;83.83;41.80;;;7.50;99.90;;;;;;5052664;28;20467;-71
2023/02/05 04:12:42;;;;;;;85.03;41.23;;;7.40;99.90;;;;;;5058765;28;20827;-73
2023/02/05 04:15:10;;;;;;;86.20;41.00;;;7.30;99.90;;;;;;5057197;28;20458;-72
2023/02/05 04:17:41;;;;;;;85.00;40.90;;;7.30;99.90;;;;;;5050002;28;20451;-71
2023/02/05 04:20:09;;;;;;;89.20;43.20;;;7.20;99.90;;;;;;5058153;28;20562;-73
2023/02/05 04:22:36;;;;;;;86.10;44.97;;;7.20;99.90;;;;;;5054493;28;20459;-70
2023/02/05 04:25:02;;;;;;;85.43;42.63;;;7.30;99.90;;;;;;5054664;28;20467;-74
2023/02/05 04:27:29;;;;;;;74.63;42.70;;;7.30;99.90;;;;;;5054265;28;20585;-71
2023/02/05 04:29:57;;;;;;;84.37;43.60;;;7.20;99.90;;;;;;5058893;28;20459;-72
2023/02/05 04:32:24;;;;;;;76.67;40.10;;;7.20;99.90;;;;;;5051849;28;20495;-72
2023/02/05 04:34:52;;;;;;;65.43;35.30;;;7.20;99.90;;;;;;5053273;28;20487;-70
2023/02/05 04:37:19;;;;;;;64.03;36.60;;;7.20;99.90;;;;;;5051443;28;20475;-71
2023/02/05 04:39:47;;;;;;;76.53;36.83;;;7.20;99.90;;;;;;5059763;28;20455;-70
2023/02/05 04:42:14;;;;;;;66.83;38.77;;;7.20;99.90;;;;;;5054478;28;20486;-70
2023/02/05 04:44:42;;;;;;;76.87;37.67;;;7.20;99.90;;;;;;5055277;28;20463;-71
2023/02/05 04:47:09;;;;;;;71.40;36.47;;;7.30;99.90;;;;;;5062296;28;20490;-70
2023/02/05 04:49:35;;;;;;;68.33;38.30;;;7.30;99.90;;;;;;5052923;28;20459;-70
2023/02/05 04:52:05;;;;;;;76.97;40.60;;;7.30;99.90;;;;;;5058009;28;20996;-70
2023/02/05 04:54:31;;;;;;;80.40;43.70;;;7.40;99.90;;;;;;5059558;28;20512;-72
2023/02/05 04:56:58;;;;;;;74.07;41.30;;;7.40;99.90;;;;;;5055870;28;20967;-70
2023/02/05 04:59:25;;;;;;;76.10;41.50;;;7.30;99.90;;;;;;5062452;28;20493;-71
2023/02/05 05:01:52;;;;;;;71.83;42.40;;;7.30;99.90;;;;;;5057222;28;20881;-70
2023/02/05 05:04:19;;;;;;;90.93;44.47;;;7.40;99.90;;;;;;5055394;28;20568;-70
2023/02/05 05:06:46;;;;;;;77.50;44.80;;;7.30;99.90;;;;;;5053048;28;20483;-69
2023/02/05 05:09:15;;;;;;;81.93;43.37;;;7.30;99.90;;;;;;5048977;28;20959;-70
2023/02/05 05:11:42;;;;;;;94.63;46.27;;;7.30;99.90;;;;;;5059271;28;20471;-70
2023/02/05 05:14:08;;;;;;;82.00;42.87;;;7.30;99.90;;;;;;5052991;28;20466;-71
2023/02/05 05:16:35;;;;;;;81.40;45.73;;;7.20;99.90;;;;;;5066028;28;20472;-70
2023/02/05 05:19:02;;;;;;;85.00;45.00;;;7.20;99.90;;;;;;5055230;28;20466;-71
2023/02/05 05:21:30;;;;;;;80.50;42.93;;;7.10;99.90;;;;;;5058524;28;20465;-70
2023/02/05 05:23:57;;;;;;;94.33;44.07;;;7.00;99.90;;;;;;5056555;28;20464;-71
2023/02/05 05:26:25;;;;;;;89.67;44.47;;;7.00;99.90;;;;;;5062483;28;20491;-71
2023/02/05 05:28:54;;;;;;;84.13;44.00;;;6.90;99.90;;;;;;5052199;28;20486;-71
2023/02/05 05:31:21;;;;;;;84.37;44.33;;;6.90;99.90;;;;;;5058492;28;20463;-71
2023/02/05 05:33:48;;;;;;;79.13;39.33;;;7.00;99.90;;;;;;5053506;28;20475;-70
2023/02/05 05:36:16;;;;;;;83.93;41.90;;;6.90;99.90;;;;;;5053303;28;20494;-71
2023/02/05 05:38:43;;;;;;;71.00;38.73;;;6.90;99.90;;;;;;5061392;28;20793;-70
2023/02/05 05:44:03;;;;;;;72.97;37.87;;;7.00;99.90;;;;;;5057940;28;20465;-71
2023/02/05 05:46:30;;;;;;;61.90;39.67;;;7.00;99.90;;;;;;5050149;28;20468;-71
2023/02/05 05:48:59;;;;;;;69.00;37.37;;;7.00;99.90;;;;;;5053699;28;20785;-71
2023/02/05 05:51:27;;;;;;;64.77;36.33;;;7.00;99.90;;;;;;5056216;28;20474;-71
2023/02/05 05:53:54;;;;;;;53.67;36.20;;;7.00;99.90;;;;;;5060919;28;20952;-70
2023/02/05 05:56:21;;;;;;;71.90;36.60;;;7.00;99.90;;;;;;5051858;28;20474;-71
2023/02/05 05:58:49;;;;;;;70.67;35.70;;;7.00;99.90;;;;;;5056953;28;20477;-73
2023/02/05 06:01:20;;;;;;;60.10;35.40;;;7.00;99.90;;;;;;5057583;28;20459;-72
2023/02/05 06:03:47;;;;;;;63.23;34.80;;;7.00;99.90;;;;;;5056668;28;20562;-73
2023/02/05 06:06:14;;;;;;;62.10;34.63;;;7.00;99.90;;;;;;5054963;28;20470;-72
2023/02/05 06:08:41;;;;;;;59.00;35.13;;;7.00;99.90;;;;;;5057119;28;20544;-70
2023/02/05 06:11:08;;;;;;;50.50;33.47;;;6.90;99.90;;;;;;5060376;28;20519;-71
2023/02/05 06:13:35;;;;;;;59.30;33.60;;;7.00;99.90;;;;;;5045310;28;20898;-71
2023/02/05 06:16:02;;;;;;;59.20;35.17;;;6.90;99.90;;;;;;5054930;28;20544;-70
2023/02/05 06:18:30;;;;;;;58.47;34.73;;;6.90;99.90;;;;;;5048828;28;20707;-72
2023/02/05 06:20:58;;;;;;;62.30;34.90;;;6.80;99.90;;;;;;5050277;28;20471;-70
2023/02/05 06:23:24;;;;;;;53.97;34.73;;;6.80;99.90;;;;;;5065057;28;20815;-71
2023/02/05 06:25:51;;;;;;;66.13;35.37;;;6.80;99.90;;;;;;5054201;28;20513;-71
2023/02/05 06:28:19;;;;;;;60.77;34.90;;;6.80;99.90;;;;;;5049534;28;20484;-71
2023/02/05 06:30:45;;;;;;;62.40;38.07;;;6.80;99.90;;;;;;5058503;28;20497;-71
2023/02/05 06:33:12;;;;;;;62.00;36.83;;;6.80;99.90;;;;;;5058131;28;20467;-70
2023/02/05 06:35:41;;;;;;;68.03;39.00;;;6.90;99.90;;;;;;5052816;28;20463;-71
2023/02/05 06:38:07;;;;;;;61.10;36.33;;;6.80;99.90;;;;;;5060629;28;20535;-72
2023/02/05 06:40:35;;;;;;;61.57;37.23;;;6.90;99.90;;;;;;5054696;28;20842;-72
2023/02/05 06:43:02;;;;;;;55.83;35.73;;;6.90;99.90;;;;;;5054631;28;20454;-72
2023/02/05 06:45:29;;;;;;;52.60;34.83;;;6.90;99.90;;;;;;5053967;28;20825;-72
2023/02/05 06:47:57;;;;;;;63.40;38.70;;;6.90;99.90;;;;;;5057583;28;20488;-70
2023/02/05 06:50:25;;;;;;;51.47;34.67;;;6.90;99.90;;;;;;5056138;28;20482;-70
2023/02/05 06:52:53;;;;;;;57.97;35.60;;;6.90;99.90;;;;;;5052971;28;20471;-71
2023/02/05 06:55:20;;;;;;;49.80;37.67;;;6.90;99.90;;;;;;5055241;28;20467;-71
2023/02/05 06:57:47;;;;;;;58.67;37.97;;;7.00;99.90;;;;;;5058362;28;20540;-71
2023/02/05 07:00:15;;;;;;;52.63;36.87;;;6.90;99.90;;;;;;5064964;28;21030;-71
2023/02/05 07:02:42;;;;;;;54.63;36.67;;;6.90;99.90;;;;;;5062912;28;20474;-70
2023/02/05 07:05:09;;;;;;;58.30;39.10;;;6.90;99.90;;;;;;5059641;28;20826;-70
2023/02/05 07:07:36;;;;;;;53.93;36.47;;;6.90;99.90;;;;;;5051184;28;20489;-71
2023/02/05 07:10:05;;;;;;;57.57;37.53;;;6.90;99.90;;;;;;5060449;28;20658;-70
2023/02/05 07:12:32;;;;;;;51.50;35.77;;;7.00;99.90;;;;;;5068214;28;20549;-70
2023/02/05 07:14:59;;;;;;;58.43;37.47;;;7.00;99.90;;;;;;5055437;28;20486;-70
2023/02/05 07:17:26;;;;;;;59.20;38.97;;;6.90;99.90;;;;;;5051220;28;20471;-70
2023/02/05 07:19:53;;;;;;;57.77;38.77;;;6.90;99.90;;;;;;5059142;28;20828;-70
2023/02/05 07:22:20;;;;;;;61.33;38.63;;;6.90;99.90;;;;;;5055668;28;20839;-71
2023/02/05 07:24:47;;;;;;;56.53;38.70;;;6.90;99.90;;;;;;5058083;28;20839;-70
2023/02/05 07:27:15;;;;;;;54.03;35.77;;;6.80;99.90;;;;;;5062696;28;20504;-71
2023/02/05 07:29:42;;;;;;;55.57;37.00;;;6.80;99.90;;;;;;5056158;28;20817;-71
2023/02/05 07:32:08;;;;;;;49.40;35.37;;;6.80;99.90;;;;;;5060072;28;20565;-71
2023/02/05 07:34:35;;;;;;;56.90;37.80;;;6.90;99.90;;;;;;5055659;28;20468;-70
2023/02/05 07:37:02;;;;;;;59.13;36.73;;;6.80;99.90;;;;;;5061678;28;20494;-70
2023/02/05 07:39:29;;;;;;;52.93;37.80;;;6.80;99.90;;;;;;5061861;28;20510;-72
2023/02/05 07:41:56;;;;;;;57.30;36.90;;;6.80;99.90;;;;;;5057953;28;20481;-71
2023/02/05 07:44:24;;;;;;;63.33;37.63;;;6.80;99.90;;;;;;5057851;28;20469;-70
2023/02/05 07:46:51;;;;;;;53.43;37.10;;;6.80;99.90;;;;;;5050776;28;20868;-72
2023/02/05 07:49:17;;;;;;;62.63;36.83;;;6.80;99.90;;;;;;5057096;28;20997;-71
2023/02/05 07:51:45;;;;;;;51.10;35.87;;;6.90;99.90;;;;;;5058736;28;20456;-70
2023/02/05 07:54:14;;;;;;;58.83;35.73;;;6.80;99.90;;;;;;5063362;28;21176;-73
2023/02/05 07:56:41;;;;;;;52.50;35.17;;;6.70;99.90;;;;;;5062093;28;20664;-73
2023/02/05 07:59:08;;;;;;;38.50;30.07;;;6.70;99.90;;;;;;5056607;28;20482;-73
2023/02/05 08:01:37;;;;;;;39.07;28.60;;;6.70;99.90;;;;;;5057513;28;21000;-73
2023/02/05 08:04:04;;;;;;;39.77;29.17;;;6.60;99.90;;;;;;5065269;28;20512;-72
2023/02/05 08:06:32;;;;;;;45.60;30.53;;;6.70;99.90;;;;;;5055790;28;20829;-72
2023/02/05 08:08:58;;;;;;;31.73;21.60;;;6.70;99.90;;;;;;5056774;28;20483;-72
2023/02/05 08:11:25;;;;;;;33.93;24.87;;;6.70;99.90;;;;;;5056968;28;20475;-72
2023/02/05 08:13:52;;;;;;;26.67;22.90;;;6.70;99.90;;;;;;5055296;28;20839;-73
2023/02/05 08:16:19;;;;;;;22.30;19.40;;;6.70;99.90;;;;;;5066736;28;20459;-73
2023/02/05 08:18:50;;;;;;;17.47;15.67;;;6.70;99.90;;;;;;5059317;28;20559;-74
2023/02/05 08:21:18;;;;;;;13.40;12.30;;;6.60;99.90;;;;;;5053947;28;20468;-72
2023/02/05 08:23:45;;;;;;;12.33;11.20;;;6.50;99.90;;;;;;5053950;28;20459;-74
2023/02/05 08:26:13;;;;;;;11.87;10.93;;;6.40;99.90;;;;;;5054991;28;20636;-71
2023/02/05 08:28:40;;;;;;;10.50;9.70;;;6.30;99.90;;;;;;5052087;28;20998;-69
2023/02/05 08:31:13;;;;;;;11.93;10.60;;;6.20;99.90;;;;;;5061946;28;20984;-70
2023/02/05 08:33:40;;;;;;;9.80;9.10;;;6.20;99.90;;;;;;5050530;28;20775;-71
2023/02/05 08:36:09;;;;;;;9.63;9.00;;;6.10;99.90;;;;;;5059796;28;20510;-70
2023/02/05 08:38:37;;;;;;;9.33;8.37;;;6.00;99.90;;;;;;5051940;28;20470;-72
2023/02/05 08:41:11;;;;;;;8.50;7.90;;;6.00;99.90;;;;;;5055726;28;20487;-71
2023/02/05 08:43:39;;;;;;;7.93;7.53;;;6.10;99.90;;;;;;5060558;28;20456;-69
2023/02/05 08:46:07;;;;;;;8.57;8.00;;;6.10;99.90;;;;;;5054300;28;20554;-71
2023/02/05 08:48:34;;;;;;;8.00;7.50;;;6.10;99.90;;;;;;5049538;28;20494;-71
2023/02/05 08:51:01;;;;;;;8.10;7.70;;;6.10;99.90;;;;;;5057732;28;20864;-71
2023/02/05 08:53:29;;;;;;;7.43;7.03;;;6.10;99.90;;;;;;5056636;28;20851;-70
2023/02/05 08:55:57;;;;;;;7.30;6.60;;;6.10;99.90;;;;;;5058546;28;20463;-72
2023/02/05 08:58:25;;;;;;;7.50;6.80;;;6.20;99.90;;;;;;5064075;28;20483;-70
2023/02/05 09:00:52;;;;;;;6.00;5.60;;;6.20;99.90;;;;;;5057259;28;20468;-72
2023/02/05 09:03:19;;;;;;;5.83;5.53;;;6.30;99.90;;;;;;5057095;28;20854;-68
2023/02/05 09:05:46;;;;;;;6.17;5.67;;;6.30;99.90;;;;;;5046406;28;20478;-71
2023/02/05 09:08:14;;;;;;;6.33;6.00;;;6.30;99.90;;;;;;5058952;28;20511;-69
2023/02/05 09:10:44;;;;;;;7.07;6.60;;;6.40;99.90;;;;;;5058189;28;20493;-70
2023/02/05 09:13:11;;;;;;;6.77;6.20;;;6.40;99.90;;;;;;5054775;28;20985;-68
2023/02/05 09:15:41;;;;;;;6.77;6.20;;;6.30;99.90;;;;;;5049674;28;20460;-70
2023/02/05 09:18:08;;;;;;;9.27;8.50;;;6.30;99.90;;;;;;5048448;28;20472;-71
2023/02/05 09:20:35;;;;;;;11.00;7.50;;;6.40;99.90;;;;;;5056534;28;20459;-70
2023/02/05 09:23:02;;;;;;;8.90;8.50;;;6.40;99.90;;;;;;5055962;28;20561;-70
2023/02/05 09:25:32;;;;;;;10.37;9.87;;;6.40;99.90;;;;;;5055646;28;20797;-70
2023/02/05 09:28:01;;;;;;;11.47;10.77;;;6.30;99.90;;;;;;5062002;28;20512;-71
2023/02/05 09:30:27;;;;;;;10.93;10.43;;;6.30;99.90;;;;;;5056437;28;20446;-69
2023/02/05 09:32:55;;;;;;;11.07;10.20;;;6.30;99.90;;;;;;5049580;28;20466;-69
2023/02/05 09:35:22;;;;;;;11.43;10.50;;;6.20;99.90;;;;;;5051280;28;20461;-71
2023/02/05 09:37:50;;;;;;;16.03;11.00;;;6.20;99.90;;;;;;5059009;28;20973;-71
2023/02/05 09:40:20;;;;;;;11.07;10.60;;;6.20;99.90;;;;;;5056370;28;20470;-70
2023/02/05 09:42:56;;;;;;;11.30;10.70;;;6.10;99.90;;;;;;5051403;28;20524;-71
2023/02/05 09:45:36;;;;;;;12.17;11.17;;;6.20;99.90;;;;;;5050349;28;20476;-71
2023/02/05 09:48:15;;;;;;;12.93;11.67;;;6.20;99.90;;;;;;5052057;28;20516;-72
2023/02/05 09:50:42;;;;;;;11.63;10.53;;;6.30;99.90;;;;;;5049388;28;20949;-73
2023/02/05 09:53:16;;;;;;;12.50;11.33;;;6.30;99.90;;;;;;5051522;28;20850;-73
2023/02/05 09:55:44;;;;;;;12.03;10.93;;;6.40;99.90;;;;;;5045226;28;20506;-73
2023/02/05 09:58:15;;;;;;;12.43;11.43;;;6.50;99.90;;;;;;5064499;28;20463;-71
2023/02/05 10:00:46;;;;;;;12.80;11.83;;;6.40;99.90;;;;;;5041812;28;20661;-70
2023/02/05 10:03:24;;;;;;;13.13;11.97;;;6.40;99.90;;;;;;5050465;28;20503;-72
2023/02/05 10:06:07;;;;;;;11.40;10.73;;;6.40;99.90;;;;;;5049725;28;20467;-73
2023/02/05 10:08:40;;;;;;;12.07;11.27;;;6.40;99.90;;;;;;5047428;28;20551;-71
2023/02/05 10:11:17;;;;;;;11.60;10.47;;;6.40;99.90;;;;;;5050456;28;20588;-71
2023/02/05 10:13:46;;;;;;;10.50;10.00;;;6.40;99.90;;;;;;5056019;28;20452;-72
2023/02/05 10:16:41;;;;;;;12.00;11.20;;;6.40;99.90;;;;;;5055314;28;20956;-71
2023/02/05 10:19:26;;;;;;;11.90;10.90;;;6.40;99.90;;;;;;5056182;28;20941;-71
2023/02/05 10:22:12;;;;;;;13.47;12.37;;;6.40;99.90;;;;;;5057042;28;20509;-71
2023/02/05 10:25:10;;;;;;;14.17;12.43;;;6.30;99.90;;;;;;5060007;28;20466;-72
2023/02/05 10:27:47;;;;;;;12.50;11.80;;;6.30;99.90;;;;;;5019483;28;20471;-72
2023/02/05 10:30:21;;;;;;;24.00;13.03;;;6.20;99.90;;;;;;5053174;28;20502;-72
2023/02/05 10:32:57;;;;;;;12.30;11.40;;;6.20;99.90;;;;;;5049245;28;21020;-73
2023/02/05 10:35:29;;;;;;;15.63;14.20;;;6.20;99.90;;;;;;5052836;28;21020;-73
2023/02/05 10:37:56;;;;;;;13.67;12.60;;;6.10;99.90;;;;;;5041429;28;20580;-71
2023/02/05 10:40:28;;;;;;;12.53;11.63;;;6.20;99.90;;;;;;5053161;28;20843;-73
2023/02/05 10:43:13;;;;;;;11.83;10.97;;;6.30;99.90;;;;;;5052883;28;21004;-72
2023/02/05 10:45:40;;;;;;;13.40;11.17;;;6.30;99.90;;;;;;5047254;28;20467;-72
2023/02/05 10:48:25;;;;;;;15.63;12.50;;;6.30;99.90;;;;;;5056369;28;20505;-72
2023/02/05 10:50:59;;;;;;;12.23;11.00;;;6.30;99.90;;;;;;5061061;28;20463;-70
2023/02/05 10:53:28;;;;;;;11.80;11.00;;;6.40;99.90;;;;;;5055709;28;20474;-70
2023/02/05 10:55:56;;;;;;;15.00;12.03;;;6.40;99.90;;;;;;5058625;28;20463;-72
2023/02/05 10:58:39;;;;;;;11.93;10.67;;;6.40;99.90;;;;;;5054351;28;21018;-72
2023/02/05 11:01:07;;;;;;;16.90;11.27;;;6.40;99.90;;;;;;5060583;28;20463;-73
2023/02/05 11:03:36;;;;;;;15.23;10.90;;;6.50;99.90;;;;;;5053670;28;20831;-72
2023/02/05 11:06:08;;;;;;;12.30;11.40;;;6.50;99.90;;;;;;5054975;28;20553;-71
2023/02/05 11:08:37;;;;;;;12.10;10.77;;;6.50;99.90;;;;;;5051563;28;20478;-71
2023/02/05 11:11:05;;;;;;;12.90;10.60;;;6.50;99.90;;;;;;5048773;28;20467;-71
2023/02/05 11:13:36;;;;;;;12.60;11.17;;;6.60;99.90;;;;;;5048223;28;20467;-72
2023/02/05 11:16:06;;;;;;;11.63;10.70;;;6.60;99.90;;;;;;5052719;28;20471;-73
2023/02/05 11:18:39;;;;;;;18.83;11.27;;;6.60;99.90;;;;;;5056666;28;20478;-72
2023/02/05 11:21:08;;;;;;;11.97;11.00;;;6.60;99.90;;;;;;5054149;28;20471;-73
2023/02/05 11:23:39;;;;;;;11.13;10.23;;;6.60;99.90;;;;;;5055733;28;20459;-72
2023/02/05 11:26:15;;;;;;;12.17;10.30;;;6.60;99.90;;;;;;5055862;28;20819;-72
2023/02/05 11:28:43;;;;;;;14.10;11.00;;;6.60;99.90;;;;;;5047614;28;21050;-71
2023/02/05 11:31:24;;;;;;;16.83;10.80;;;6.60;99.90;;;;;;5049689;28;20480;-72
2023/02/05 11:34:09;;;;;;;10.37;9.67;;;6.60;99.90;;;;;;5051395;28;20520;-73
2023/02/05 11:36:37;;;;;;;10.33;9.53;;;6.60;99.90;;;;;;5043834;28;20503;-74
2023/02/05 11:39:06;;;;;;;23.67;10.77;;;6.70;99.90;;;;;;5046892;28;20602;-71
2023/02/05 11:41:46;;;;;;;19.90;10.23;;;6.80;99.90;;;;;;5059476;28;20498;-71
2023/02/05 11:44:19;;;;;;;22.93;10.43;;;6.80;99.90;;;;;;5054215;28;21003;-72
2023/02/05 11:46:46;;;;;;;17.77;12.30;;;6.90;99.90;;;;;;5054465;28;20462;-73
2023/02/05 11:49:21;;;;;;;22.10;10.43;;;6.90;99.90;;;;;;5057796;28;20491;-71
2023/02/05 11:51:51;;;;;;;14.90;10.43;;;6.90;99.90;;;;;;5059783;28;21070;-70
2023/02/05 11:54:24;;;;;;;13.40;9.77;;;6.90;99.90;;;;;;5059441;28;20947;-71
2023/02/05 11:57:07;;;;;;;10.50;9.27;;;7.00;99.90;;;;;;5058912;28;20867;-73
2023/02/05 11:59:34;;;;;;;14.03;9.70;;;7.10;99.90;;;;;;5059914;28;20476;-72
2023/02/05 12:02:34;;;;;;;19.83;12.87;;;7.10;99.90;;;;;;5071634;28;20970;-72
2023/02/05 12:05:11;;;;;;;16.33;14.40;;;7.00;99.90;;;;;;4993412;28;20488;-71
2023/02/05 12:07:42;;;;;;;15.70;14.13;;;7.00;99.90;;;;;;4997520;28;20475;-72
2023/02/05 12:10:36;;;;;;;17.53;13.70;;;6.90;99.90;;;;;;5030908;28;20490;-73
2023/02/05 12:13:13;;;;;;;17.17;15.33;;;6.90;99.90;;;;;;5062264;28;20538;-71
2023/02/05 12:15:49;;;;;;;24.70;16.47;;;6.80;99.90;;;;;;5053006;28;20469;-70
2023/02/05 12:18:26;;;;;;;19.50;17.77;;;6.70;99.90;;;;;;5057204;28;21020;-71
2023/02/05 12:21:11;;;;;;;17.57;15.97;;;6.60;99.90;;;;;;5061626;28;20485;-72
2023/02/05 12:24:04;;;;;;;36.27;17.37;;;6.50;99.90;;;;;;5060284;28;22311;-71
2023/02/05 12:26:33;;;;;;;19.30;16.40;;;6.50;99.90;;;;;;5059082;28;20475;-73
2023/02/05 12:29:26;;;;;;;18.83;16.97;;;6.50;99.90;;;;;;5060981;28;20544;-72
2023/02/05 12:32:04;;;;;;;24.87;19.10;;;6.50;99.90;;;;;;5067150;28;20473;-70
2023/02/05 12:34:42;;;;;;;18.67;16.80;;;6.50;99.90;;;;;;5051971;28;21007;-72
2023/02/05 12:37:28;;;;;;;17.17;15.67;;;6.60;99.90;;;;;;5053483;28;20464;-73
2023/02/05 12:40:07;;;;;;;16.33;15.13;;;6.60;99.90;;;;;;5059921;28;20466;-70
2023/02/05 12:42:38;;;;;;;18.13;15.67;;;6.60;99.90;;;;;;5053579;28;21053;-73
2023/02/05 12:45:33;;;;;;;15.60;14.20;;;6.70;99.90;;;;;;5056334;28;20470;-71
2023/02/05 12:48:12;;;;;;;13.87;12.70;;;6.70;99.90;;;;;;5059728;28;20455;-73
2023/02/05 12:50:57;;;;;;;19.77;12.43;;;6.80;99.90;;;;;;5055048;28;20490;-71
2023/02/05 12:53:39;;;;;;;14.20;12.60;;;6.90;99.90;;;;;;5058324;28;20489;-71
2023/02/05 12:56:28;;;;;;;16.00;13.33;;;6.90;99.90;;;;;;5050584;28;20941;-74
2023/02/05 12:58:59;;;;;;;16.67;13.13;;;7.00;99.90;;;;;;5062824;28;20531;-72